Time;durP1;ratioP1;P1;durP2;ratioP2;P2;SDS_P1;SDS_P2;PMS_P1;PMS_P2;Temp;Humidity;BMP_temperature;BMP_pressure;BME280_temperature;BME280_humidity;BME280_pressure;Samples;Min_cycle;Max_cycle;Signal;HPM_P1;HPM_P2
2021/12/22 00:00:08;;;;;;;3.33;2.10;;;;;;;22.18;18.84;101519.28;5062483;28;20043;-41
2021/12/22 00:02:39;;;;;;;2.50;2.00;;;;;;;22.27;18.35;101526.34;5067784;28;20111;-40
2021/12/22 00:05:05;;;;;;;3.00;2.10;;;;;;;22.35;18.75;101525.16;5068954;28;20032;-41
2021/12/22 00:07:33;;;;;;;2.90;1.90;;;;;;;22.32;18.78;101521.22;5072363;28;20455;-40
2021/12/22 00:09:59;;;;;;;3.03;2.20;;;;;;;22.29;18.47;101522.03;5066411;28;20051;-40
2021/12/22 00:12:24;;;;;;;2.80;2.20;;;;;;;22.29;18.73;101524.00;5068145;28;20040;-40
2021/12/22 00:14:50;;;;;;;3.40;2.15;;;;;;;22.26;18.32;101536.59;5068495;28;20043;-40
2021/12/22 00:17:15;;;;;;;3.00;2.00;;;;;;;22.23;18.67;101527.16;5069802;28;20032;-39
2021/12/22 00:19:41;;;;;;;2.80;1.80;;;;;;;22.19;18.40;101525.59;5066728;28;20070;-40
2021/12/22 00:22:06;;;;;;;2.60;1.92;;;;;;;22.15;18.65;101531.09;5068526;28;20522;-41
2021/12/22 00:24:34;;;;;;;3.33;2.13;;;;;;;22.13;18.42;101533.47;5071429;28;20097;-40
2021/12/22 00:26:59;;;;;;;3.25;2.10;;;;;;;22.10;18.67;101534.28;5063786;28;20044;-42
2021/12/22 00:29:25;;;;;;;2.88;2.10;;;;;;;22.09;18.59;101531.91;5068364;28;20086;-41
2021/12/22 00:32:11;;;;;;;2.45;1.90;;;;;;;22.07;18.80;101523.22;5066723;28;20039;-41
2021/12/22 00:34:45;;;;;;;2.40;1.90;;;;;;;22.05;18.44;101526.34;5067155;28;20048;-41
2021/12/22 00:37:11;;;;;;;2.92;2.13;;;;;;;22.04;18.35;101524.78;5068972;28;20423;-40
2021/12/22 00:39:36;;;;;;;2.65;1.98;;;;;;;22.03;18.56;101516.94;5067188;28;20064;-40
2021/12/22 00:42:02;;;;;;;3.50;2.20;;;;;;;22.00;18.71;101528.75;5067583;28;20067;-41
2021/12/22 00:44:28;;;;;;;3.08;2.28;;;;;;;21.98;18.39;101520.84;5068012;28;20032;-41
2021/12/22 00:46:56;;;;;;;3.05;1.85;;;;;;;21.96;18.56;101526.75;5065423;28;20042;-42
2021/12/22 00:49:22;;;;;;;2.80;2.08;;;;;;;21.95;18.39;101527.16;5068200;28;20472;-41
2021/12/22 00:51:47;;;;;;;2.60;1.67;;;;;;;21.95;18.48;101524.41;5066938;28;20033;-40
2021/12/22 00:54:13;;;;;;;2.70;1.85;;;;;;;21.94;18.76;101525.59;5063639;28;20764;-41
2021/12/22 00:56:38;;;;;;;3.42;2.13;;;;;;;21.92;18.49;101527.97;5065325;28;20048;-44
2021/12/22 00:59:04;;;;;;;2.80;2.00;;;;;;;21.92;18.64;101525.22;5067324;28;20550;-40
2021/12/22 01:01:30;;;;;;;2.97;2.28;;;;;;;21.90;18.59;101528.38;5065736;28;20056;-40
2021/12/22 01:03:56;;;;;;;2.92;2.03;;;;;;;21.88;18.64;101527.16;5067477;28;20025;-42
2021/12/22 01:06:23;;;;;;;2.85;2.00;;;;;;;21.89;18.50;101537.81;5069515;28;20024;-42
2021/12/22 01:08:48;;;;;;;2.60;1.90;;;;;;;21.88;18.42;101538.19;5067386;28;20020;-40
2021/12/22 01:11:14;;;;;;;3.55;2.30;;;;;;;21.85;18.26;101545.28;5065587;28;20044;-41
2021/12/22 01:13:40;;;;;;;2.42;1.70;;;;;;;21.89;18.31;101537.03;5067484;28;20502;-41
2021/12/22 01:16:07;;;;;;;2.92;2.00;;;;;;;21.96;18.49;101540.53;5068612;28;20044;-41
2021/12/22 01:18:34;;;;;;;3.33;2.20;;;;;;;22.04;18.51;101535.81;5066378;28;20024;-40
2021/12/22 01:24:12;;;;;;;2.88;1.90;;;;;;;22.20;18.21;101554.72;4984339;28;20574;-41
2021/12/22 01:26:45;;;;;;;2.85;1.90;;;;;;;22.26;18.35;101547.59;5051294;28;20461;-40
2021/12/22 01:29:12;;;;;;;2.95;2.10;;;;;;;22.31;18.18;101554.69;5067470;28;20503;-41
2021/12/22 01:31:40;;;;;;;2.63;1.85;;;;;;;22.36;18.42;101560.63;5063970;28;20068;-41
2021/12/22 01:34:05;;;;;;;2.92;1.90;;;;;;;22.39;18.41;101562.56;5066646;28;20024;-41
2021/12/22 01:36:31;;;;;;;3.08;2.00;;;;;;;22.44;18.41;101553.88;5063408;28;20044;-41
2021/12/22 01:38:56;;;;;;;2.63;1.88;;;;;;;22.48;18.17;101560.19;5065939;28;20032;-41
2021/12/22 01:41:25;;;;;;;2.90;1.90;;;;;;;22.51;18.27;101553.84;5067410;28;20094;-40
2021/12/22 01:43:51;;;;;;;2.50;1.73;;;;;;;22.56;18.30;101555.44;5065856;28;20115;-40
2021/12/22 01:49:14;;;;;;;3.00;2.10;;;;;;;22.65;17.87;101560.53;5068218;28;20396;-41
2021/12/22 01:51:59;;;;;;;3.17;2.00;;;;;;;22.66;18.39;101560.13;5066440;28;20055;-41
2021/12/22 01:54:37;;;;;;;2.45;1.95;;;;;;;22.72;18.19;101566.00;5065424;28;20029;-41
2021/12/22 01:57:08;;;;;;;2.72;1.70;;;;;;;22.72;17.81;101560.47;5066241;28;20036;-41
2021/12/22 01:59:34;;;;;;;2.58;1.92;;;;;;;22.74;18.08;101558.91;5062198;28;20556;-40
2021/12/22 02:02:00;;;;;;;2.47;1.83;;;;;;;22.75;18.19;101563.25;5062947;28;20123;-40
2021/12/22 02:04:28;;;;;;;2.90;2.20;;;;;;;22.78;18.31;101561.66;5067489;28;20113;-40
2021/12/22 02:06:53;;;;;;;2.38;1.90;;;;;;;22.81;18.09;101555.31;5067201;28;20024;-41
2021/12/22 02:12:06;;;;;;;3.25;2.30;;;;;;;22.86;18.18;101560.47;5064308;28;20515;-40
2021/12/22 02:14:31;;;;;;;2.50;1.70;;;;;;;22.86;17.85;101557.72;5063954;28;20036;-42
2021/12/22 02:16:57;;;;;;;2.30;1.70;;;;;;;22.90;18.05;101554.91;5044411;28;20489;-41
2021/12/22 02:19:23;;;;;;;3.05;1.90;;;;;;;22.93;17.74;101556.88;5067774;28;20404;-41
2021/12/22 02:21:53;;;;;;;2.10;1.63;;;;;;;22.92;18.15;101549.78;5060820;28;20032;-40
2021/12/22 02:24:19;;;;;;;2.50;1.90;;;;;;;22.95;17.92;101554.50;5065972;28;20024;-40
2021/12/22 02:26:51;;;;;;;2.55;1.70;;;;;;;22.97;18.05;101555.69;5067284;28;20036;-41
2021/12/22 02:29:23;;;;;;;2.85;1.88;;;;;;;22.98;17.84;101560.00;5066024;28;20404;-40
2021/12/22 02:32:01;;;;;;;2.75;2.10;;;;;;;22.99;18.09;101555.28;5064438;28;20033;-41
2021/12/22 02:34:26;;;;;;;3.22;1.90;;;;;;;23.01;17.92;101555.66;5067318;28;20036;-40
2021/12/22 02:36:58;;;;;;;2.42;1.80;;;;;;;23.04;17.65;101554.88;5069629;28;20449;-40
2021/12/22 02:39:24;;;;;;;2.63;1.73;;;;;;;23.04;17.98;101557.63;5071263;28;20032;-39
2021/12/22 02:41:50;;;;;;;2.80;1.70;;;;;;;23.06;17.69;101558.00;5070795;28;20036;-42
2021/12/22 02:44:16;;;;;;;2.95;1.98;;;;;;;23.08;17.71;101566.66;5069373;28;20040;-39
2021/12/22 02:46:41;;;;;;;2.72;1.90;;;;;;;23.09;17.87;101568.22;5069295;28;20043;-42
2021/12/22 02:49:08;;;;;;;2.15;1.70;;;;;;;23.11;18.07;101570.56;5071145;28;20036;-40
2021/12/22 02:51:34;;;;;;;2.25;1.65;;;;;;;23.12;17.75;101566.63;5071467;28;20033;-40
2021/12/22 03:02:36;;;;;;;2.83;1.73;;;;;;;23.18;17.65;101574.09;5068925;28;20044;-40
2021/12/22 03:04:31;;;;;;;3.05;1.92;;;;;;;23.19;17.91;101569.34;5065749;28;20074;-40
2021/12/22 03:07:00;;;;;;;2.83;2.00;;;;;;;23.20;17.69;101570.94;5070809;28;20629;-40
2021/12/22 03:09:30;;;;;;;2.60;1.90;;;;;;;23.21;17.58;101570.50;5067080;28;20044;-40
2021/12/22 03:11:57;;;;;;;2.20;1.58;;;;;;;23.20;17.59;101570.94;5065067;28;20051;-41
2021/12/22 03:14:23;;;;;;;3.00;2.15;;;;;;;23.22;17.65;101574.88;5071201;28;20098;-41
2021/12/22 03:16:49;;;;;;;2.72;2.10;;;;;;;23.22;17.41;101574.88;5070054;28;20510;-40
2021/12/22 03:19:16;;;;;;;2.50;1.88;;;;;;;23.26;17.73;101574.84;5069683;28;20035;-41
2021/12/22 03:21:42;;;;;;;3.33;2.00;;;;;;;23.26;17.82;101569.31;5067916;28;20048;-40
2021/12/22 03:24:08;;;;;;;2.40;1.83;;;;;;;23.27;17.86;101573.66;5068182;28;20037;-40
2021/12/22 03:26:40;;;;;;;2.60;1.90;;;;;;;23.20;17.66;101576.44;5069122;28;20070;-44
2021/12/22 03:29:06;;;;;;;3.35;2.10;;;;;;;23.13;17.86;101573.75;5066168;28;20035;-41
2021/12/22 03:31:31;;;;;;;3.08;2.10;;;;;;;23.04;17.48;101568.66;5066999;28;20041;-40
2021/12/22 03:33:57;;;;;;;2.60;1.98;;;;;;;22.97;17.71;101572.22;5068600;28;20090;-43
2021/12/22 03:36:23;;;;;;;2.55;2.08;;;;;;;22.91;17.66;101573.81;5068939;28;20119;-41
2021/12/22 03:38:48;;;;;;;3.03;2.10;;;;;;;22.87;17.70;101569.53;5065445;28;20029;-40
2021/12/22 03:41:14;;;;;;;2.70;2.08;;;;;;;22.83;17.98;101571.47;5065777;28;20040;-39
2021/12/22 03:43:39;;;;;;;3.10;2.03;;;;;;;22.79;17.97;101575.03;5066345;28;20064;-39
2021/12/22 03:46:05;;;;;;;3.05;2.13;;;;;;;22.74;17.97;101571.88;5043342;28;20035;-41
2021/12/22 03:48:30;;;;;;;2.88;2.00;;;;;;;22.72;17.90;101568.75;5063103;28;20066;-39
2021/12/22 03:50:56;;;;;;;3.08;2.15;;;;;;;22.67;17.79;101567.22;5066099;28;20036;-39
2021/12/22 03:53:22;;;;;;;2.67;2.00;;;;;;;22.55;17.70;101564.88;5046888;28;20472;-41
2021/12/22 03:55:47;;;;;;;3.25;2.20;;;;;;;22.59;17.60;101570.38;5061285;28;20105;-40
2021/12/22 03:58:13;;;;;;;2.72;2.00;;;;;;;22.57;17.67;101581.03;5074178;28;20041;-40
2021/12/22 04:00:40;;;;;;;3.17;2.20;;;;;;;22.53;17.64;101567.25;5065592;28;20028;-40
2021/12/22 04:03:16;;;;;;;2.70;2.00;;;;;;;22.49;17.95;101572.00;5064110;28;20025;-40
2021/12/22 04:05:42;;;;;;;2.92;1.98;;;;;;;22.49;17.62;101575.53;5056657;28;20496;-42
2021/12/22 04:09:04;;;;;;;3.15;2.13;;;;;;;22.43;17.62;101581.84;5119168;27;20148;-39
2021/12/22 04:11:29;;;;;;;3.03;2.03;;;;;;;22.40;17.82;101582.66;5097956;28;20048;-42
2021/12/22 04:13:55;;;;;;;2.42;1.90;;;;;;;22.39;17.77;101587.38;5061895;28;20611;-41
2021/12/22 04:16:20;;;;;;;2.45;2.10;;;;;;;22.37;18.05;101583.44;5092977;28;20058;-41
2021/12/22 04:18:47;;;;;;;2.97;2.10;;;;;;;22.35;17.78;101585.78;5096978;28;20039;-40
2021/12/22 04:21:13;;;;;;;2.40;1.75;;;;;;;22.31;17.74;101591.31;5075942;28;20422;-40
2021/12/22 04:23:38;;;;;;;2.58;1.92;;;;;;;22.28;17.75;101581.09;5063028;28;20051;-40
2021/12/22 04:26:04;;;;;;;3.67;2.10;;;;;;;22.27;18.20;101589.75;5096485;28;20044;-40
2021/12/22 04:28:29;;;;;;;2.70;1.95;;;;;;;;;;5092963;28;20132;-43
2021/12/22 04:30:55;;;;;;;2.72;1.80;;;;;;;22.22;17.81;101585.44;5078018;28;20039;-41
2021/12/22 04:33:21;;;;;;;2.63;1.90;;;;;;;22.20;17.97;101582.28;5095914;28;20036;-41
2021/12/22 04:35:47;;;;;;;2.47;1.85;;;;;;;22.18;17.93;101588.22;5094194;28;20036;-43
2021/12/22 04:38:13;;;;;;;3.05;2.15;;;;;;;22.18;18.13;101581.91;5046272;28;20065;-41
2021/12/22 04:40:39;;;;;;;2.65;1.98;;;;;;;22.21;17.74;101581.09;5059244;28;20080;-40
2021/12/22 04:43:04;;;;;;;2.80;2.03;;;;;;;22.28;17.92;101583.88;5094675;28;20087;-41
2021/12/22 04:45:30;;;;;;;2.75;2.00;;;;;;;22.29;17.72;101568.09;5088077;28;20067;-40
2021/12/22 04:47:57;;;;;;;2.80;2.13;;;;;;;22.43;17.89;101579.09;5092939;28;20039;-41
2021/12/22 04:50:22;;;;;;;2.25;1.90;;;;;;;22.45;17.77;101577.50;5089082;28;20089;-40
2021/12/22 04:53:28;;;;;;;2.60;1.98;;;;;;;22.54;17.50;101582.59;5107859;27;20219;-42
2021/12/22 04:55:53;;;;;;;2.92;2.17;;;;;;;22.58;17.57;101583.41;5107878;27;20031;-40
2021/12/22 04:58:19;;;;;;;2.53;1.92;;;;;;;22.61;17.75;101579.03;5085889;28;20085;-41
2021/12/22 05:00:44;;;;;;;2.47;1.83;;;;;;;22.68;17.67;101584.53;5068888;27;20034;-41
2021/12/22 05:03:10;;;;;;;3.17;2.05;;;;;;;22.71;17.73;101592.81;5097603;27;20023;-41
2021/12/22 05:05:35;;;;;;;2.40;1.75;;;;;;;22.73;17.84;101584.91;5099402;27;20031;-41
2021/12/22 05:08:01;;;;;;;2.95;1.90;;;;;;;22.76;17.34;101592.41;5114763;27;20303;-41
2021/12/22 05:10:27;;;;;;;2.50;1.80;;;;;;;22.78;17.46;101595.53;5110246;27;21157;-41
2021/12/22 05:12:53;;;;;;;2.95;2.10;;;;;;;22.81;17.51;101588.44;5108780;27;20031;-42
2021/12/22 05:15:21;;;;;;;2.90;1.92;;;;;;;22.83;17.19;101591.56;5110201;27;20126;-41
2021/12/22 05:20:19;;;;;;;2.55;1.77;;;;;;;22.87;17.31;101591.59;5113001;27;20064;-42
2021/12/22 05:22:44;;;;;;;2.65;2.13;;;;;;;22.88;17.63;101599.47;5114000;27;20036;-42
2021/12/22 05:25:10;;;;;;;3.10;2.10;;;;;;;22.90;17.68;101591.56;5109707;27;20068;-42
2021/12/22 05:27:36;;;;;;;2.97;2.22;;;;;;;22.93;17.58;101593.56;5120364;27;20499;-42
2021/12/22 05:30:03;;;;;;;2.78;2.13;;;;;;;22.94;17.39;101602.63;5110596;27;20051;-43
2021/12/22 05:32:32;;;;;;;3.10;2.03;;;;;;;22.95;17.64;101596.69;5099460;27;20112;-41
2021/12/22 05:35:01;;;;;;;2.83;2.03;;;;;;;22.97;17.27;101601.81;5117235;27;20125;-41
2021/12/22 05:37:26;;;;;;;2.90;2.08;;;;;;;22.99;17.32;101597.44;5119102;27;20596;-41
2021/12/22 05:39:52;;;;;;;3.03;2.13;;;;;;;22.97;17.23;101593.53;5097942;27;20047;-40
2021/12/22 05:42:19;;;;;;;3.10;1.88;;;;;;;23.01;17.29;101603.34;5097081;28;20036;-40
2021/12/22 05:44:45;;;;;;;2.67;2.10;;;;;;;23.04;17.42;101612.81;5098604;28;20039;-41
2021/12/22 05:47:10;;;;;;;3.15;1.98;;;;;;;23.04;17.62;101613.59;5080607;28;20117;-41
2021/12/22 05:49:36;;;;;;;2.85;2.20;;;;;;;23.06;17.69;101604.91;5077174;28;20046;-41
2021/12/22 05:52:02;;;;;;;2.80;2.00;;;;;;;23.06;17.32;101605.72;5091502;28;20036;-42
2021/12/22 05:54:27;;;;;;;2.83;2.10;;;;;;;23.07;17.59;101612.81;5075576;28;20046;-41
2021/12/22 05:56:53;;;;;;;2.60;2.00;;;;;;;23.09;17.26;101610.41;5088478;28;20039;-42
2021/12/22 05:59:18;;;;;;;2.88;2.13;;;;;;;23.09;17.50;101618.69;5072435;28;20410;-41
2021/12/22 06:01:44;;;;;;;3.28;2.17;;;;;;;23.08;17.59;101611.59;5090466;28;20503;-41
2021/12/22 06:04:09;;;;;;;3.22;2.10;;;;;;;23.11;17.58;101612.78;5080955;28;20102;-42
2021/12/22 06:06:35;;;;;;;3.03;2.10;;;;;;;23.14;17.45;101614.75;5075023;28;20040;-42
2021/12/22 06:09:01;;;;;;;3.28;2.10;;;;;;;23.16;17.22;101619.88;5073847;28;20115;-42
2021/12/22 06:11:27;;;;;;;2.60;1.95;;;;;;;23.15;17.56;101624.59;5077393;28;20044;-42
2021/12/22 06:13:52;;;;;;;3.35;1.90;;;;;;;23.17;17.29;101638.00;5037944;28;20031;-41
2021/12/22 06:16:18;;;;;;;2.60;1.80;;;;;;;23.18;17.55;101626.53;5056262;28;20112;-41
2021/12/22 06:18:45;;;;;;;2.70;2.00;;;;;;;23.20;17.61;101634.44;5057013;28;20051;-46
2021/12/22 06:21:11;;;;;;;2.78;2.10;;;;;;;23.19;17.47;101636.41;5077495;28;20034;-43
2021/12/22 06:23:37;;;;;;;3.00;2.20;;;;;;;23.22;17.31;101643.91;5066440;28;20034;-40
2021/12/22 06:26:03;;;;;;;2.60;2.00;;;;;;;23.23;17.50;101639.94;5036188;28;20478;-41
2021/12/22 06:28:29;;;;;;;2.78;2.10;;;;;;;23.24;17.46;101644.28;5075778;28;20055;-40
2021/12/22 06:30:54;;;;;;;2.75;2.22;;;;;;;23.24;17.33;101640.72;5074004;28;20032;-41
2021/12/22 06:33:20;;;;;;;3.63;2.00;;;;;;;23.24;17.15;101649.81;5064404;28;20048;-42
2021/12/22 06:35:47;;;;;;;3.22;2.10;;;;;;;23.26;17.33;101644.66;5049998;28;20039;-42
2021/12/22 06:38:13;;;;;;;2.85;1.90;;;;;;;23.25;17.39;101645.84;5051529;28;20044;-40
2021/12/22 06:40:39;;;;;;;3.05;2.20;;;;;;;23.29;17.53;101656.88;5037126;28;20556;-42
2021/12/22 06:43:05;;;;;;;2.90;2.08;;;;;;;23.28;17.41;101647.78;5076593;28;20304;-40
2021/12/22 06:45:30;;;;;;;2.67;1.92;;;;;;;23.29;17.22;101652.13;5070724;28;20036;-42
2021/12/22 06:47:56;;;;;;;3.78;2.17;;;;;;;23.30;17.32;101655.69;5071456;28;20063;-40
2021/12/22 06:50:21;;;;;;;3.22;2.20;;;;;;;23.31;17.33;101658.06;5069825;28;20659;-41
2021/12/22 06:52:47;;;;;;;2.63;1.80;;;;;;;23.33;17.04;101661.19;5074198;28;20074;-41
2021/12/22 06:55:12;;;;;;;3.25;2.15;;;;;;;23.35;17.10;101661.56;5049109;28;20465;-42
2021/12/22 06:57:38;;;;;;;2.50;1.80;;;;;;;23.34;17.46;101659.22;5048414;28;20283;-42
2021/12/22 07:00:05;;;;;;;3.03;2.20;;;;;;;23.36;17.50;101667.88;5049627;28;20094;-42
2021/12/22 07:02:35;;;;;;;2.55;1.95;;;;;;;23.36;17.39;101668.66;5056667;28;20044;-41
2021/12/22 07:05:00;;;;;;;2.90;1.90;;;;;;;23.36;17.13;101663.16;5070340;28;20035;-42
2021/12/22 07:07:26;;;;;;;3.40;2.20;;;;;;;23.37;17.06;101667.47;5047345;28;20036;-41
2021/12/22 07:09:51;;;;;;;2.95;2.15;;;;;;;23.39;17.26;101669.84;5039047;28;20070;-40
2021/12/22 07:12:17;;;;;;;2.70;2.00;;;;;;;23.40;17.26;101663.13;5046999;28;20073;-41
2021/12/22 07:14:45;;;;;;;3.33;2.03;;;;;;;23.41;17.36;101661.97;5036868;28;20758;-41
2021/12/22 07:17:11;;;;;;;3.55;2.03;;;;;;;23.41;17.25;101659.19;5060436;28;20035;-41
2021/12/22 07:19:36;;;;;;;3.03;1.90;;;;;;;23.42;17.44;101659.97;5075429;27;20081;-43
2021/12/22 07:22:02;;;;;;;3.00;2.30;;;;;;;23.42;17.27;101665.50;5067078;28;20551;-42
2021/12/22 07:24:31;;;;;;;2.60;1.95;;;;;;;23.43;17.20;101656.81;5050138;28;20261;-40
2021/12/22 07:26:56;;;;;;;2.92;2.03;;;;;;;23.43;17.37;101654.03;5055022;28;20046;-41
2021/12/22 07:29:23;;;;;;;2.80;2.10;;;;;;;23.46;17.44;101657.97;5020081;28;20201;-48
2021/12/22 07:31:49;;;;;;;2.70;2.00;;;;;;;23.46;17.13;101655.22;5040035;28;20516;-42
2021/12/22 07:34:37;;;;;;;2.58;1.90;;;;;;;23.47;17.03;101652.03;5042065;28;20171;-44
2021/12/22 07:37:23;;;;;;;3.35;2.05;;;;;;;23.48;16.99;101658.34;5054554;28;20602;-42
2021/12/22 07:39:48;;;;;;;2.90;1.90;;;;;;;23.47;17.07;101665.84;5041424;28;20035;-41
2021/12/22 07:42:14;;;;;;;2.55;1.83;;;;;;;23.47;17.14;101662.31;5068675;27;20043;-43
2021/12/22 07:44:40;;;;;;;3.00;2.20;;;;;;;23.47;17.12;101659.53;5032336;28;20127;-43
2021/12/22 07:47:06;;;;;;;3.13;2.30;;;;;;;23.50;17.24;101669.78;5032009;28;20314;-41
2021/12/22 07:49:32;;;;;;;2.92;2.30;;;;;;;23.50;16.98;101673.34;5057711;28;20071;-41
2021/12/22 07:51:59;;;;;;;3.47;2.10;;;;;;;23.49;17.40;101674.50;5049505;28;20449;-43
2021/12/22 07:54:24;;;;;;;3.75;2.50;;;;;;;23.50;17.22;101665.06;5016738;28;20032;-42
2021/12/22 07:56:50;;;;;;;3.22;2.20;;;;;;;23.51;17.35;101679.66;5055406;28;20035;-43
2021/12/22 07:59:15;;;;;;;3.28;2.10;;;;;;;23.53;17.24;101682.81;5037755;28;20135;-42
2021/12/22 08:01:41;;;;;;;3.10;2.20;;;;;;;23.53;17.10;101677.28;5058124;28;20032;-43
2021/12/22 08:04:07;;;;;;;3.10;2.42;;;;;;;23.52;16.99;101676.50;5062065;28;20036;-44
2021/12/22 08:06:32;;;;;;;3.28;2.40;;;;;;;23.55;17.33;101680.41;5053536;28;20540;-47
2021/12/22 08:08:58;;;;;;;2.92;2.38;;;;;;;23.54;17.30;101673.31;5061297;28;20457;-45
2021/12/22 08:11:23;;;;;;;3.40;2.30;;;;;;;23.51;17.49;101674.91;5059647;28;20040;-45
2021/12/22 08:13:49;;;;;;;3.05;2.33;;;;;;;23.45;17.80;101672.97;5057899;28;20043;-48
2021/12/22 08:16:18;;;;;;;3.70;2.30;;;;;;;23.38;18.07;101682.84;5058084;28;20039;-42
2021/12/22 08:18:43;;;;;;;3.60;2.22;;;;;;;23.31;18.39;101680.16;5018892;28;20402;-42
2021/12/22 08:21:09;;;;;;;4.22;2.88;;;;;;;23.25;18.87;101673.47;5047987;28;20063;-43
2021/12/22 08:23:36;;;;;;;3.72;2.42;;;;;;;23.18;19.46;101679.00;5062242;28;20036;-42
2021/12/22 08:26:03;;;;;;;3.17;2.33;;;;;;;23.15;19.63;101674.28;5052234;28;21086;-42
2021/12/22 08:28:28;;;;;;;4.55;2.55;;;;;;;23.11;19.65;101669.94;5033631;28;21645;-42
2021/12/22 08:30:54;;;;;;;3.13;2.45;;;;;;;23.07;19.68;101678.25;5053917;28;20046;-41
2021/12/22 08:33:26;;;;;;;3.42;2.60;;;;;;;23.04;20.01;101685.38;5057086;28;20102;-44
2021/12/22 08:38:56;;;;;;;4.45;2.70;;;;;;;23.01;23.87;101677.88;5064775;27;20562;-43
2021/12/22 08:41:41;;;;;;;4.55;2.60;;;;;;;23.03;21.68;101677.50;5040683;28;20032;-45
2021/12/22 08:44:08;;;;;;;3.17;2.20;;;;;;;23.01;21.24;101672.34;5036285;28;20488;-45
2021/12/22 08:46:35;;;;;;;4.05;2.63;;;;;;;23.07;21.51;101687.31;5055051;28;20042;-44
2021/12/22 08:49:02;;;;;;;4.05;2.65;;;;;;;23.10;21.37;101682.97;5037939;28;20045;-44
2021/12/22 08:51:27;;;;;;;3.42;2.58;;;;;;;23.14;21.80;101680.22;5060922;28;20043;-45
2021/12/22 08:53:53;;;;;;;3.72;2.60;;;;;;;23.16;21.21;101677.84;5017210;27;51282;-46
2021/12/22 08:56:19;;;;;;;3.10;2.60;;;;;;;23.16;21.25;101670.34;5006608;28;20052;-45
2021/12/22 08:58:45;;;;;;;3.80;2.60;;;;;;;23.18;21.20;101680.97;4996438;28;20075;-47
2021/12/22 09:01:11;;;;;;;3.13;2.35;;;;;;;23.19;21.41;101679.78;5010758;28;20037;-44
2021/12/22 09:03:36;;;;;;;3.58;2.60;;;;;;;23.21;20.96;101683.72;5026879;28;20037;-43
2021/12/22 09:06:02;;;;;;;4.13;2.58;;;;;;;23.23;21.23;101686.88;5016033;28;20067;-48
2021/12/22 09:08:27;;;;;;;3.40;2.70;;;;;;;23.25;21.37;101676.22;5022365;28;20032;-50
2021/12/22 09:10:53;;;;;;;3.47;2.40;;;;;;;23.28;21.35;101675.41;5012786;28;20044;-54
2021/12/22 09:13:20;;;;;;;3.60;2.60;;;;;;;23.29;21.27;101679.75;5009378;28;20037;-55
2021/12/22 09:15:46;;;;;;;3.40;2.30;;;;;;;23.29;21.59;101676.97;5014903;28;20037;-53
2021/12/22 09:18:12;;;;;;;3.90;2.97;;;;;;;23.31;21.27;101671.88;5006582;28;20155;-50
2021/12/22 09:20:38;;;;;;;3.42;2.60;;;;;;;23.33;21.48;101668.69;5003995;28;20044;-55
2021/12/22 09:23:04;;;;;;;3.40;2.42;;;;;;;23.34;21.22;101676.56;5010662;28;20033;-54
2021/12/22 09:25:29;;;;;;;4.10;2.90;;;;;;;23.36;21.34;101670.66;5006570;28;20660;-53
2021/12/22 09:27:55;;;;;;;3.22;2.50;;;;;;;23.35;21.20;101680.13;5007016;28;22235;-57
2021/12/22 09:30:20;;;;;;;4.28;2.90;;;;;;;23.37;21.59;101680.50;5010466;28;20033;-53
2021/12/22 09:32:46;;;;;;;6.15;2.80;;;;;;;23.36;21.43;101676.94;5003993;28;20056;-53
2021/12/22 09:35:12;;;;;;;3.17;2.42;;;;;;;23.37;21.27;101678.53;5039004;28;20404;-54
2021/12/22 09:37:37;;;;;;;4.18;2.67;;;;;;;23.37;21.21;101686.81;5014519;28;22085;-49
2021/12/22 09:40:04;;;;;;;3.83;3.05;;;;;;;23.40;21.26;101681.66;5018825;28;20497;-52
2021/12/22 09:42:29;;;;;;;4.20;2.88;;;;;;;23.39;21.37;101675.34;5011439;28;20029;-51
2021/12/22 09:44:58;;;;;;;3.40;2.47;;;;;;;23.40;21.52;101676.94;5013916;28;20061;-54
2021/12/22 09:47:28;;;;;;;4.70;2.80;;;;;;;23.43;21.54;101692.72;5003479;28;20061;-54
2021/12/22 09:50:11;;;;;;;4.15;2.70;;;;;;;23.40;22.33;101684.44;5009810;28;20046;-54
2021/12/22 09:52:37;;;;;;;5.57;3.10;;;;;;;23.43;22.06;101689.16;5002613;28;20119;-56
2021/12/22 09:55:03;;;;;;;3.92;2.75;;;;;;;23.43;21.45;101689.16;5027491;28;20037;-48
2021/12/22 09:57:29;;;;;;;4.47;2.70;;;;;;;23.37;21.53;101684.03;5009587;28;20036;-49
2021/12/22 09:59:55;;;;;;;4.65;2.88;;;;;;;23.39;21.81;101683.63;5003094;28;20409;-52
2021/12/22 10:02:25;;;;;;;5.30;3.03;;;;;;;23.36;21.53;101687.22;5012018;28;20033;-51
2021/12/22 10:04:51;;;;;;;4.65;2.60;;;;;;;23.36;21.52;101684.44;5007250;28;20103;-50
2021/12/22 10:07:20;;;;;;;3.92;2.60;;;;;;;23.38;21.37;101688.38;5015481;28;20029;-52
2021/12/22 10:09:46;;;;;;;3.65;2.70;;;;;;;23.38;21.34;101691.13;5005578;28;20152;-53
2021/12/22 10:12:17;;;;;;;5.65;2.97;;;;;;;23.38;21.89;101685.63;5010847;28;20037;-54
2021/12/22 10:14:56;;;;;;;4.80;2.80;;;;;;;23.37;21.52;101680.50;5001703;28;20113;-54
2021/12/22 10:17:30;;;;;;;4.35;2.75;;;;;;;23.40;21.18;101684.44;5017059;28;20047;-54
2021/12/22 10:20:00;;;;;;;5.63;2.80;;;;;;;23.38;22.18;101693.91;5007580;28;20719;-53
2021/12/22 10:22:43;;;;;;;3.92;2.70;;;;;;;23.40;21.54;101681.66;4988199;28;20033;-53
2021/12/22 10:25:10;;;;;;;4.28;2.50;;;;;;;23.38;21.34;101687.59;5015633;28;20063;-53
2021/12/22 10:27:36;;;;;;;3.80;2.53;;;;;;;23.39;21.26;101686.41;4998422;28;20043;-54
2021/12/22 10:30:21;;;;;;;4.15;2.75;;;;;;;23.42;21.91;101682.06;5005800;28;20047;-48
2021/12/22 10:32:47;;;;;;;4.07;2.80;;;;;;;23.39;21.04;101686.41;5009176;28;20043;-53
2021/12/22 10:35:13;;;;;;;4.35;2.83;;;;;;;23.37;21.06;101678.53;5011119;28;20926;-51
2021/12/22 10:37:40;;;;;;;4.18;2.63;;;;;;;23.37;21.28;101677.75;5002933;28;20044;-56
2021/12/22 10:40:27;;;;;;;4.07;2.70;;;;;;;23.40;21.55;101681.66;5031687;28;20037;-53
2021/12/22 10:42:53;;;;;;;3.65;2.70;;;;;;;23.37;21.42;101678.53;5023112;28;20039;-57
2021/12/22 10:45:19;;;;;;;3.97;2.40;;;;;;;23.38;21.30;101684.84;5002665;28;20044;-45
2021/12/22 10:50:33;;;;;;;3.75;2.40;;;;;;;23.34;21.58;101673.81;5005720;28;20039;-58
2021/12/22 10:52:59;;;;;;;4.88;2.78;;;;;;;23.35;21.19;101678.16;5023683;28;20157;-55
2021/12/22 10:55:25;;;;;;;4.95;2.75;;;;;;;23.35;21.47;101686.44;5002631;28;20040;-53
2021/12/22 10:57:50;;;;;;;4.13;2.60;;;;;;;23.37;21.77;101678.53;5010411;28;20815;-53
2021/12/22 11:00:20;;;;;;;3.92;2.72;;;;;;;23.37;21.82;101681.28;4999937;28;20047;-50
2021/12/22 11:03:03;;;;;;;4.22;2.40;;;;;;;23.38;22.86;101677.34;5008525;28;20099;-53
2021/12/22 11:05:29;;;;;;;4.55;2.53;;;;;;;23.38;22.11;101676.53;5001173;28;20037;-52
2021/12/22 11:07:56;;;;;;;5.00;2.70;;;;;;;23.36;21.97;101688.00;4992491;28;20036;-54
2021/12/22 11:10:25;;;;;;;3.83;2.78;;;;;;;23.35;22.00;101686.44;5002490;28;20722;-54
2021/12/22 11:15:22;;;;;;;3.45;2.53;;;;;;;23.35;22.87;101675.38;5041907;27;20217;-53
2021/12/22 11:17:48;;;;;;;4.57;2.60;;;;;;;23.36;22.24;101685.25;5043332;28;20045;-54
2021/12/22 11:20:13;;;;;;;4.05;2.92;;;;;;;23.34;22.41;101670.28;5051422;28;20127;-50
2021/12/22 11:23:00;;;;;;;4.78;2.80;;;;;;;23.35;21.82;101683.66;5024845;28;20051;-51
2021/12/22 11:25:26;;;;;;;5.10;2.83;;;;;;;23.35;21.91;101678.16;5043080;28;20040;-52
2021/12/22 11:27:52;;;;;;;4.55;2.63;;;;;;;23.34;21.79;101676.56;5028122;28;20032;-54
2021/12/22 11:30:18;;;;;;;3.22;2.50;;;;;;;23.32;21.91;101678.97;5038640;28;20695;-53
2021/12/22 11:32:44;;;;;;;5.20;2.50;;;;;;;23.29;21.98;101665.94;5042951;28;20465;-55
2021/12/22 11:35:11;;;;;;;4.03;2.60;;;;;;;23.25;21.72;101662.41;5037189;28;20044;-54
2021/12/22 11:37:37;;;;;;;4.53;2.85;;;;;;;23.20;21.84;101668.34;5021543;28;20110;-51
2021/12/22 11:40:04;;;;;;;5.00;2.88;;;;;;;23.19;22.01;101669.53;5008887;28;20520;-55
2021/12/22 11:42:37;;;;;;;3.70;2.67;;;;;;;23.18;22.31;101675.47;5021763;28;21289;-52
2021/12/22 11:45:23;;;;;;;4.30;2.63;;;;;;;23.21;21.91;101671.88;5037741;28;20033;-59
2021/12/22 11:47:50;;;;;;;3.92;2.83;;;;;;;23.20;21.79;101668.34;5057011;28;20036;-57
2021/12/22 11:50:17;;;;;;;4.82;2.83;;;;;;;23.20;22.13;101675.84;5036684;28;20101;-50
2021/12/22 11:52:53;;;;;;;3.78;2.80;;;;;;;23.24;22.18;101677.41;5028215;28;20162;-56
2021/12/22 11:55:25;;;;;;;3.40;2.75;;;;;;;23.23;22.00;101669.53;5028658;28;20895;-55